sensor_id;sensor_type;location;lat;lon;timestamp;pressure;altitude;pressure_sealevel;temperature;humidity
8890;BME280;4481;43.406;24.454;2023-05-18T00:01:40;76503.53;;;-144.09;100.00
8890;BME280;4481;43.406;24.454;2023-05-18T00:04:07;76509.78;;;-144.09;100.00
8890;BME280;4481;43.406;24.454;2023-05-18T00:06:33;76482.63;;;-144.09;100.00
8890;BME280;4481;43.406;24.454;2023-05-18T00:08:59;76484.72;;;-144.09;100.00
8890;BME280;4481;43.406;24.454;2023-05-18T00:11:26;76482.63;;;-144.09;100.00
8890;BME280;4481;43.406;24.454;2023-05-18T00:13:52;76472.19;;;-144.09;100.00
8890;BME280;4481;43.406;24.454;2023-05-18T00:16:18;76484.72;;;-144.09;100.00
8890;BME280;4481;43.406;24.454;2023-05-18T00:18:44;76480.53;;;-144.09;100.00
8890;BME280;4481;43.406;24.454;2023-05-18T00:21:10;76505.59;;;-144.09;100.00
8890;BME280;4481;43.406;24.454;2023-05-18T00:23:37;76511.88;;;-144.09;100.00
8890;BME280;4481;43.406;24.454;2023-05-18T00:26:04;76507.69;;;-144.09;100.00
8890;BME280;4481;43.406;24.454;2023-05-18T00:28:31;76503.53;;;-144.09;100.00
8890;BME280;4481;43.406;24.454;2023-05-18T00:30:57;76509.78;;;-144.09;100.00
8890;BME280;4481;43.406;24.454;2023-05-18T00:33:24;76511.88;;;-144.09;100.00
8890;BME280;4481;43.406;24.454;2023-05-18T00:35:50;76526.50;;;-144.09;100.00
8890;BME280;4481;43.406;24.454;2023-05-18T00:38:17;76539.03;;;-144.09;100.00
8890;BME280;4481;43.406;24.454;2023-05-18T00:40:43;76509.78;;;-144.09;100.00
8890;BME280;4481;43.406;24.454;2023-05-18T00:43:09;76497.25;;;-144.09;100.00
8890;BME280;4481;43.406;24.454;2023-05-18T00:45:36;76476.34;;;-144.09;100.00
8890;BME280;4481;43.406;24.454;2023-05-18T00:48:02;76495.16;;;-144.09;100.00
8890;BME280;4481;43.406;24.454;2023-05-18T00:50:29;76488.88;;;-144.09;100.00
8890;BME280;4481;43.406;24.454;2023-05-18T00:52:56;76480.53;;;-144.09;100.00
8890;BME280;4481;43.406;24.454;2023-05-18T00:55:22;76493.06;;;-144.09;100.00
8890;BME280;4481;43.406;24.454;2023-05-18T00:57:49;76482.63;;;-144.09;100.00
8890;BME280;4481;43.406;24.454;2023-05-18T01:00:17;76484.72;;;-144.09;100.00
8890;BME280;4481;43.406;24.454;2023-05-18T01:02:45;76497.25;;;-144.09;100.00
8890;BME280;4481;43.406;24.454;2023-05-18T01:05:12;76486.81;;;-144.09;100.00
8890;BME280;4481;43.406;24.454;2023-05-18T01:07:38;76478.44;;;-144.09;100.00
8890;BME280;4481;43.406;24.454;2023-05-18T01:10:07;76484.72;;;-144.09;100.00
8890;BME280;4481;43.406;24.454;2023-05-18T01:12:37;76490.97;;;-144.09;100.00
8890;BME280;4481;43.406;24.454;2023-05-18T01:15:07;76484.72;;;-144.09;100.00
8890;BME280;4481;43.406;24.454;2023-05-18T01:17:41;76493.06;;;-144.09;100.00
8890;BME280;4481;43.406;24.454;2023-05-18T01:20:20;76484.72;;;-144.09;100.00
8890;BME280;4481;43.406;24.454;2023-05-18T01:23:01;76505.59;;;-144.09;100.00
8890;BME280;4481;43.406;24.454;2023-05-18T01:25:33;76501.44;;;-144.09;100.00
8890;BME280;4481;43.406;24.454;2023-05-18T01:28:05;76522.31;;;-144.09;100.00
8890;BME280;4481;43.406;24.454;2023-05-18T01:30:33;76495.16;;;-144.09;100.00
8890;BME280;4481;43.406;24.454;2023-05-18T01:33:05;76482.63;;;-144.09;100.00
8890;BME280;4481;43.406;24.454;2023-05-18T01:35:31;76482.63;;;-144.09;100.00
8890;BME280;4481;43.406;24.454;2023-05-18T01:37:58;76486.81;;;-144.09;100.00
8890;BME280;4481;43.406;24.454;2023-05-18T01:40:25;76488.88;;;-144.09;100.00
8890;BME280;4481;43.406;24.454;2023-05-18T01:42:55;76497.25;;;-144.09;100.00
8890;BME280;4481;43.406;24.454;2023-05-18T01:45:26;76493.06;;;-144.09;100.00
8890;BME280;4481;43.406;24.454;2023-05-18T01:47:56;76501.44;;;-144.09;100.00
8890;BME280;4481;43.406;24.454;2023-05-18T01:50:30;76497.25;;;-144.09;100.00
8890;BME280;4481;43.406;24.454;2023-05-18T01:53:05;76511.88;;;-144.09;100.00
8890;BME280;4481;43.406;24.454;2023-05-18T01:55:35;76518.16;;;-144.09;100.00
8890;BME280;4481;43.406;24.454;2023-05-18T01:58:01;76524.41;;;-144.09;100.00
8890;BME280;4481;43.406;24.454;2023-05-18T02:00:30;76530.69;;;-144.09;100.00
8890;BME280;4481;43.406;24.454;2023-05-18T02:02:56;76509.78;;;-144.09;100.00
8890;BME280;4481;43.406;24.454;2023-05-18T02:05:23;76518.16;;;-144.09;100.00
8890;BME280;4481;43.406;24.454;2023-05-18T02:07:49;76524.41;;;-144.09;100.00
8890;BME280;4481;43.406;24.454;2023-05-18T02:10:15;76503.53;;;-144.09;100.00
8890;BME280;4481;43.406;24.454;2023-05-18T02:12:41;76501.44;;;-144.09;100.00
8890;BME280;4481;43.406;24.454;2023-05-18T02:15:08;76509.78;;;-144.09;100.00
8890;BME280;4481;43.406;24.454;2023-05-18T02:17:35;76507.69;;;-144.09;100.00
8890;BME280;4481;43.406;24.454;2023-05-18T02:20:02;76518.16;;;-144.09;100.00
8890;BME280;4481;43.406;24.454;2023-05-18T02:22:31;76518.16;;;-144.09;100.00
8890;BME280;4481;43.406;24.454;2023-05-18T02:24:57;76526.50;;;-144.09;100.00
8890;BME280;4481;43.406;24.454;2023-05-18T02:27:23;76543.22;;;-144.09;100.00
8890;BME280;4481;43.406;24.454;2023-05-18T02:29:50;76551.56;;;-144.09;100.00
8890;BME280;4481;43.406;24.454;2023-05-18T02:32:16;76555.75;;;-144.09;100.00
8890;BME280;4481;43.406;24.454;2023-05-18T02:34:43;76559.94;;;-144.09;100.00
8890;BME280;4481;43.406;24.454;2023-05-18T02:37:10;76564.13;;;-144.09;100.00
8890;BME280;4481;43.406;24.454;2023-05-18T02:39:38;76568.28;;;-144.09;100.00
8890;BME280;4481;43.406;24.454;2023-05-18T02:42:05;76564.13;;;-144.09;100.00
8890;BME280;4481;43.406;24.454;2023-05-18T02:44:31;76570.38;;;-144.09;100.00
8890;BME280;4481;43.406;24.454;2023-05-18T02:46:57;76572.47;;;-144.09;100.00
8890;BME280;4481;43.406;24.454;2023-05-18T02:49:23;76572.47;;;-144.09;100.00
8890;BME280;4481;43.406;24.454;2023-05-18T02:51:50;76582.91;;;-144.09;100.00
8890;BME280;4481;43.406;24.454;2023-05-18T02:54:16;76580.84;;;-144.09;100.00
8890;BME280;4481;43.406;24.454;2023-05-18T02:56:42;76587.09;;;-144.09;100.00
8890;BME280;4481;43.406;24.454;2023-05-18T02:59:09;76589.19;;;-144.09;100.00
8890;BME280;4481;43.406;24.454;2023-05-18T03:01:35;76589.19;;;-144.09;100.00
8890;BME280;4481;43.406;24.454;2023-05-18T03:04:02;76587.09;;;-144.09;100.00
8890;BME280;4481;43.406;24.454;2023-05-18T03:06:28;76595.47;;;-144.09;100.00
8890;BME280;4481;43.406;24.454;2023-05-18T03:08:55;76593.38;;;-144.09;100.00
8890;BME280;4481;43.406;24.454;2023-05-18T03:11:22;76599.63;;;-144.09;100.00
8890;BME280;4481;43.406;24.454;2023-05-18T03:13:48;76591.28;;;-144.09;100.00
8890;BME280;4481;43.406;24.454;2023-05-18T03:16:15;76593.38;;;-144.09;100.00
8890;BME280;4481;43.406;24.454;2023-05-18T03:18:41;76591.28;;;-144.09;100.00
8890;BME280;4481;43.406;24.454;2023-05-18T03:21:07;76589.19;;;-144.09;100.00
8890;BME280;4481;43.406;24.454;2023-05-18T03:23:34;76585.00;;;-144.09;100.00
8890;BME280;4481;43.406;24.454;2023-05-18T03:26:01;76589.19;;;-144.09;100.00
8890;BME280;4481;43.406;24.454;2023-05-18T03:28:28;76593.38;;;-144.09;100.00
8890;BME280;4481;43.406;24.454;2023-05-18T03:30:54;76593.38;;;-144.09;100.00
8890;BME280;4481;43.406;24.454;2023-05-18T03:33:20;76582.91;;;-144.09;100.00
8890;BME280;4481;43.406;24.454;2023-05-18T03:35:47;76585.00;;;-144.09;100.00
8890;BME280;4481;43.406;24.454;2023-05-18T03:38:13;76587.09;;;-144.09;100.00
8890;BME280;4481;43.406;24.454;2023-05-18T03:40:39;76589.19;;;-144.09;100.00
8890;BME280;4481;43.406;24.454;2023-05-18T03:43:06;76589.19;;;-144.09;100.00
8890;BME280;4481;43.406;24.454;2023-05-18T03:45:33;76593.38;;;-144.09;100.00
8890;BME280;4481;43.406;24.454;2023-05-18T03:47:59;76591.28;;;-144.09;100.00
8890;BME280;4481;43.406;24.454;2023-05-18T03:50:25;76601.72;;;-144.09;100.00
8890;BME280;4481;43.406;24.454;2023-05-18T03:52:53;76599.63;;;-144.09;100.00
8890;BME280;4481;43.406;24.454;2023-05-18T03:55:20;76599.63;;;-144.09;100.00
8890;BME280;4481;43.406;24.454;2023-05-18T03:57:46;76597.56;;;-144.09;100.00
8890;BME280;4481;43.406;24.454;2023-05-18T04:00:13;76595.47;;;-144.09;100.00
8890;BME280;4481;43.406;24.454;2023-05-18T04:02:40;76591.28;;;-144.09;100.00
8890;BME280;4481;43.406;24.454;2023-05-18T04:05:07;76591.28;;;-144.09;100.00
8890;BME280;4481;43.406;24.454;2023-05-18T04:07:34;76591.28;;;-144.09;100.00
8890;BME280;4481;43.406;24.454;2023-05-18T04:10:08;76589.19;;;-144.09;100.00
8890;BME280;4481;43.406;24.454;2023-05-18T04:12:34;76589.19;;;-144.09;100.00
8890;BME280;4481;43.406;24.454;2023-05-18T04:15:01;76591.28;;;-144.09;100.00
8890;BME280;4481;43.406;24.454;2023-05-18T04:17:29;76587.09;;;-144.09;100.00
8890;BME280;4481;43.406;24.454;2023-05-18T04:19:55;76582.91;;;-144.09;100.00
8890;BME280;4481;43.406;24.454;2023-05-18T04:22:21;76587.09;;;-144.09;100.00
8890;BME280;4481;43.406;24.454;2023-05-18T04:24:47;76576.66;;;-144.09;100.00
8890;BME280;4481;43.406;24.454;2023-05-18T04:27:13;76574.56;;;-144.09;100.00
8890;BME280;4481;43.406;24.454;2023-05-18T04:29:40;76566.19;;;-144.09;100.00
8890;BME280;4481;43.406;24.454;2023-05-18T04:32:08;76562.03;;;-144.09;100.00
8890;BME280;4481;43.406;24.454;2023-05-18T04:34:36;76564.13;;;-144.09;100.00
8890;BME280;4481;43.406;24.454;2023-05-18T04:37:02;76559.94;;;-144.09;100.00
8890;BME280;4481;43.406;24.454;2023-05-18T04:39:30;76559.94;;;-144.09;100.00
8890;BME280;4481;43.406;24.454;2023-05-18T04:41:57;76551.56;;;-144.09;100.00
8890;BME280;4481;43.406;24.454;2023-05-18T04:44:23;76543.22;;;-144.09;100.00
8890;BME280;4481;43.406;24.454;2023-05-18T04:46:50;76539.03;;;-144.09;100.00
8890;BME280;4481;43.406;24.454;2023-05-18T04:49:17;76543.22;;;-144.09;100.00
8890;BME280;4481;43.406;24.454;2023-05-18T04:51:48;76543.22;;;-144.09;100.00
8890;BME280;4481;43.406;24.454;2023-05-18T04:54:15;76536.94;;;-144.09;100.00
8890;BME280;4481;43.406;24.454;2023-05-18T04:56:41;76543.22;;;-144.09;100.00
8890;BME280;4481;43.406;24.454;2023-05-18T04:59:07;76547.41;;;-144.09;100.00
8890;BME280;4481;43.406;24.454;2023-05-18T05:01:33;76545.31;;;-144.09;100.00
8890;BME280;4481;43.406;24.454;2023-05-18T05:04:00;76530.69;;;-144.09;100.00
8890;BME280;4481;43.406;24.454;2023-05-18T05:06:26;76516.06;;;-144.09;100.00
8890;BME280;4481;43.406;24.454;2023-05-18T05:08:53;76522.31;;;-144.09;100.00
8890;BME280;4481;43.406;24.454;2023-05-18T05:11:20;76520.22;;;-144.09;100.00
8890;BME280;4481;43.406;24.454;2023-05-18T05:13:46;76518.16;;;-144.09;100.00
8890;BME280;4481;43.406;24.454;2023-05-18T05:16:12;76493.06;;;-144.09;100.00
8890;BME280;4481;43.406;24.454;2023-05-18T05:18:38;76490.97;;;-144.09;100.00
8890;BME280;4481;43.406;24.454;2023-05-18T05:21:04;76499.34;;;-144.09;100.00
8890;BME280;4481;43.406;24.454;2023-05-18T05:23:31;76488.88;;;-144.09;100.00
8890;BME280;4481;43.406;24.454;2023-05-18T05:25:58;76476.34;;;-144.09;100.00
8890;BME280;4481;43.406;24.454;2023-05-18T05:28:24;76486.81;;;-144.09;100.00
8890;BME280;4481;43.406;24.454;2023-05-18T05:30:50;76484.72;;;-144.09;100.00
8890;BME280;4481;43.406;24.454;2023-05-18T05:33:17;76490.97;;;-144.09;100.00
8890;BME280;4481;43.406;24.454;2023-05-18T05:35:43;76480.53;;;-144.09;100.00
8890;BME280;4481;43.406;24.454;2023-05-18T05:38:10;76474.25;;;-144.09;100.00
8890;BME280;4481;43.406;24.454;2023-05-18T05:40:36;76480.53;;;-144.09;100.00
8890;BME280;4481;43.406;24.454;2023-05-18T05:43:03;76470.09;;;-144.09;100.00
8890;BME280;4481;43.406;24.454;2023-05-18T05:45:29;76472.19;;;-144.09;100.00
8890;BME280;4481;43.406;24.454;2023-05-18T05:47:56;76480.53;;;-144.09;100.00
8890;BME280;4481;43.406;24.454;2023-05-18T05:50:22;76493.06;;;-144.09;100.00
8890;BME280;4481;43.406;24.454;2023-05-18T05:52:48;76486.81;;;-144.09;100.00
8890;BME280;4481;43.406;24.454;2023-05-18T05:55:14;76478.44;;;-144.09;100.00
8890;BME280;4481;43.406;24.454;2023-05-18T05:57:41;76468.00;;;-144.09;100.00
8890;BME280;4481;43.406;24.454;2023-05-18T06:00:09;76470.09;;;-144.09;100.00
8890;BME280;4481;43.406;24.454;2023-05-18T06:02:36;76463.81;;;-144.09;100.00
8890;BME280;4481;43.406;24.454;2023-05-18T06:05:02;76457.53;;;-144.09;100.00
8890;BME280;4481;43.406;24.454;2023-05-18T06:07:29;76453.38;;;-144.09;100.00
8890;BME280;4481;43.406;24.454;2023-05-18T06:09:55;76447.09;;;-144.09;100.00
8890;BME280;4481;43.406;24.454;2023-05-18T06:12:22;76445.00;;;-144.09;100.00
8890;BME280;4481;43.406;24.454;2023-05-18T06:14:48;76459.63;;;-144.09;100.00
8890;BME280;4481;43.406;24.454;2023-05-18T06:17:18;76472.19;;;-144.09;100.00
8890;BME280;4481;43.406;24.454;2023-05-18T06:19:44;76468.00;;;-144.09;100.00
8890;BME280;4481;43.406;24.454;2023-05-18T06:22:10;76465.91;;;-144.09;100.00
8890;BME280;4481;43.406;24.454;2023-05-18T06:24:36;76457.53;;;-144.09;100.00
8890;BME280;4481;43.406;24.454;2023-05-18T06:27:03;76440.84;;;-144.09;100.00
8890;BME280;4481;43.406;24.454;2023-05-18T06:29:29;76457.53;;;-144.09;100.00
8890;BME280;4481;43.406;24.454;2023-05-18T06:31:55;76438.75;;;-144.09;100.00
8890;BME280;4481;43.406;24.454;2023-05-18T06:34:22;76417.84;;;-144.09;100.00
8890;BME280;4481;43.406;24.454;2023-05-18T06:36:49;76430.38;;;-144.09;100.00
8890;BME280;4481;43.406;24.454;2023-05-18T06:39:15;76426.22;;;-144.09;100.00
8890;BME280;4481;43.406;24.454;2023-05-18T06:41:42;76432.47;;;-144.09;100.00
8890;BME280;4481;43.406;24.454;2023-05-18T06:44:09;76415.75;;;-144.09;100.00
8890;BME280;4481;43.406;24.454;2023-05-18T06:46:35;76445.00;;;-144.09;100.00
8890;BME280;4481;43.406;24.454;2023-05-18T06:49:02;76432.47;;;-144.09;100.00
8890;BME280;4481;43.406;24.454;2023-05-18T06:51:30;76376.06;;;-144.09;100.00
8890;BME280;4481;43.406;24.454;2023-05-18T06:53:56;76376.06;;;-144.09;100.00
8890;BME280;4481;43.406;24.454;2023-05-18T06:56:22;76396.94;;;-144.09;100.00
8890;BME280;4481;43.406;24.454;2023-05-18T06:58:48;76396.94;;;-144.09;100.00
8890;BME280;4481;43.406;24.454;2023-05-18T07:01:16;76411.56;;;-144.09;100.00
8890;BME280;4481;43.406;24.454;2023-05-18T07:03:42;76390.69;;;-144.09;100.00
8890;BME280;4481;43.406;24.454;2023-05-18T07:06:09;76369.78;;;-144.09;100.00
8890;BME280;4481;43.406;24.454;2023-05-18T07:08:36;76363.53;;;-144.09;100.00
8890;BME280;4481;43.406;24.454;2023-05-18T07:11:02;76344.72;;;-144.09;100.00
8890;BME280;4481;43.406;24.454;2023-05-18T07:13:28;76344.72;;;-144.09;100.00
8890;BME280;4481;43.406;24.454;2023-05-18T07:15:55;76305.03;;;-144.09;100.00
8890;BME280;4481;43.406;24.454;2023-05-18T07:18:21;76279.94;;;-144.09;100.00
8890;BME280;4481;43.406;24.454;2023-05-18T07:20:48;76288.31;;;-144.09;100.00
8890;BME280;4481;43.406;24.454;2023-05-18T07:23:14;76284.13;;;-144.09;100.00
8890;BME280;4481;43.406;24.454;2023-05-18T07:25:41;76261.13;;;-144.09;100.00
8890;BME280;4481;43.406;24.454;2023-05-18T07:28:08;76263.22;;;-144.09;100.00
8890;BME280;4481;43.406;24.454;2023-05-18T07:30:34;76244.44;;;-144.09;100.00
8890;BME280;4481;43.406;24.454;2023-05-18T07:33:00;76231.88;;;-144.09;100.00
8890;BME280;4481;43.406;24.454;2023-05-18T07:35:26;76269.50;;;-144.09;100.00
8890;BME280;4481;43.406;24.454;2023-05-18T07:37:52;76225.63;;;-144.09;100.00
8890;BME280;4481;43.406;24.454;2023-05-18T07:40:19;76219.34;;;-144.09;100.00
8890;BME280;4481;43.406;24.454;2023-05-18T07:42:46;76215.19;;;-144.09;100.00
8890;BME280;4481;43.406;24.454;2023-05-18T07:45:12;76196.38;;;-144.09;100.00
8890;BME280;4481;43.406;24.454;2023-05-18T07:47:39;76181.75;;;-144.09;99.49
8890;BME280;4481;43.406;24.454;2023-05-18T07:50:06;76192.19;;;-144.09;100.00
8890;BME280;4481;43.406;24.454;2023-05-18T07:52:32;76175.47;;;-144.09;100.00
8890;BME280;4481;43.406;24.454;2023-05-18T07:55:00;76211.00;;;-144.09;100.00
8890;BME280;4481;43.406;24.454;2023-05-18T07:57:26;76190.09;;;-144.09;100.00
8890;BME280;4481;43.406;24.454;2023-05-18T07:59:55;76217.25;;;-144.09;99.04
8890;BME280;4481;43.406;24.454;2023-05-18T08:02:21;76225.63;;;-144.09;99.38
8890;BME280;4481;43.406;24.454;2023-05-18T08:04:48;76194.28;;;-144.09;98.83
8890;BME280;4481;43.406;24.454;2023-05-18T08:07:15;76223.53;;;-144.09;99.16
8890;BME280;4481;43.406;24.454;2023-05-18T08:09:42;76204.72;;;-144.09;100.00
8890;BME280;4481;43.406;24.454;2023-05-18T08:12:09;76188.00;;;-144.09;98.79
8890;BME280;4481;43.406;24.454;2023-05-18T08:14:35;76194.28;;;-144.09;99.86
8890;BME280;4481;43.406;24.454;2023-05-18T08:17:03;76194.28;;;-144.09;99.28
8890;BME280;4481;43.406;24.454;2023-05-18T08:19:29;76190.09;;;-144.09;99.99
8890;BME280;4481;43.406;24.454;2023-05-18T08:21:55;76223.53;;;-144.09;100.00
8890;BME280;4481;43.406;24.454;2023-05-18T08:24:21;76204.72;;;-144.09;98.87
8890;BME280;4481;43.406;24.454;2023-05-18T08:26:47;76202.63;;;-144.09;98.76
8890;BME280;4481;43.406;24.454;2023-05-18T08:29:14;76219.34;;;-144.09;98.78
8890;BME280;4481;43.406;24.454;2023-05-18T08:31:40;76259.06;;;-144.09;99.60
8890;BME280;4481;43.406;24.454;2023-05-18T08:34:07;76227.72;;;-144.09;98.59
8890;BME280;4481;43.406;24.454;2023-05-18T08:36:34;76259.06;;;-144.09;99.47
8890;BME280;4481;43.406;24.454;2023-05-18T08:39:01;76242.34;;;-144.09;99.34
8890;BME280;4481;43.406;24.454;2023-05-18T08:41:29;76240.25;;;-144.09;98.88
8890;BME280;4481;43.406;24.454;2023-05-18T08:44:00;76290.41;;;-144.09;100.00
8890;BME280;4481;43.406;24.454;2023-05-18T08:46:31;76313.38;;;-144.09;100.00
8890;BME280;4481;43.406;24.454;2023-05-18T08:49:00;76342.63;;;-144.09;100.00
8890;BME280;4481;43.406;24.454;2023-05-18T08:51:28;76317.56;;;-144.09;100.00
8890;BME280;4481;43.406;24.454;2023-05-18T08:53:57;76294.56;;;-144.09;100.00
8890;BME280;4481;43.406;24.454;2023-05-18T08:56:24;76271.59;;;-144.09;100.00
8890;BME280;4481;43.406;24.454;2023-05-18T08:58:54;76242.34;;;-144.09;99.29
8890;BME280;4481;43.406;24.454;2023-05-18T09:01:20;76248.59;;;-144.09;99.99
8890;BME280;4481;43.406;24.454;2023-05-18T09:03:49;76332.19;;;-144.09;100.00
8890;BME280;4481;43.406;24.454;2023-05-18T09:06:16;76384.41;;;-144.09;100.00
8890;BME280;4481;43.406;24.454;2023-05-18T09:08:45;76355.16;;;-144.09;100.00
8890;BME280;4481;43.406;24.454;2023-05-18T09:11:13;76373.97;;;-144.09;100.00
8890;BME280;4481;43.406;24.454;2023-05-18T09:13:42;76355.16;;;-144.09;100.00
8890;BME280;4481;43.406;24.454;2023-05-18T09:16:09;76344.72;;;-144.09;100.00
8890;BME280;4481;43.406;24.454;2023-05-18T09:18:35;76346.81;;;-144.09;100.00
8890;BME280;4481;43.406;24.454;2023-05-18T09:21:01;76373.97;;;-144.09;100.00
8890;BME280;4481;43.406;24.454;2023-05-18T09:23:28;76378.16;;;-144.09;100.00
8890;BME280;4481;43.406;24.454;2023-05-18T09:25:56;76392.78;;;-144.09;100.00
8890;BME280;4481;43.406;24.454;2023-05-18T09:28:26;76376.06;;;-144.09;100.00
8890;BME280;4481;43.406;24.454;2023-05-18T09:30:52;76321.72;;;-144.09;100.00
8890;BME280;4481;43.406;24.454;2023-05-18T09:33:19;76307.09;;;-144.09;100.00
8890;BME280;4481;43.406;24.454;2023-05-18T09:35:49;76277.84;;;-144.09;100.00
8890;BME280;4481;43.406;24.454;2023-05-18T09:38:15;76269.50;;;-144.09;100.00
8890;BME280;4481;43.406;24.454;2023-05-18T09:40:47;76269.50;;;-144.09;99.88
8890;BME280;4481;43.406;24.454;2023-05-18T09:43:15;76244.44;;;-144.09;99.86
8890;BME280;4481;43.406;24.454;2023-05-18T09:45:44;76279.94;;;-144.09;100.00
8890;BME280;4481;43.406;24.454;2023-05-18T09:48:12;76238.16;;;-144.09;100.00
8890;BME280;4481;43.406;24.454;2023-05-18T09:50:38;76208.91;;;-144.09;100.00
8890;BME280;4481;43.406;24.454;2023-05-18T09:53:06;76265.31;;;-144.09;98.12
8890;BME280;4481;43.406;24.454;2023-05-18T09:55:36;76236.06;;;-144.09;98.06
8890;BME280;4481;43.406;24.454;2023-05-18T09:58:04;76167.13;;;-144.09;96.72
8890;BME280;4481;43.406;24.454;2023-05-18T10:00:38;76131.59;;;-144.09;96.20
8890;BME280;4481;43.406;24.454;2023-05-18T10:03:16;76064.75;;;-144.09;95.38
8890;BME280;4481;43.406;24.454;2023-05-18T10:05:42;76125.34;;;-144.09;93.14
8890;BME280;4481;43.406;24.454;2023-05-18T10:08:11;76167.13;;;-144.09;92.75
8890;BME280;4481;43.406;24.454;2023-05-18T10:10:38;76213.09;;;-144.09;93.94
8890;BME280;4481;43.406;24.454;2023-05-18T10:13:05;76217.25;;;-144.09;94.78
8890;BME280;4481;43.406;24.454;2023-05-18T10:15:34;76204.72;;;-144.09;95.22
8890;BME280;4481;43.406;24.454;2023-05-18T10:18:02;76227.72;;;-144.09;94.91
8890;BME280;4481;43.406;24.454;2023-05-18T10:20:32;76179.66;;;-144.09;94.39
8890;BME280;4481;43.406;24.454;2023-05-18T10:22:59;76144.13;;;-144.09;93.89
8890;BME280;4481;43.406;24.454;2023-05-18T10:25:28;76137.88;;;-144.09;94.48
8890;BME280;4481;43.406;24.454;2023-05-18T10:27:55;76077.28;;;-144.09;95.25
8890;BME280;4481;43.406;24.454;2023-05-18T10:30:22;76079.38;;;-144.09;94.75
8890;BME280;4481;43.406;24.454;2023-05-18T10:32:50;76077.28;;;-144.09;94.29
8890;BME280;4481;43.406;24.454;2023-05-18T10:35:17;76062.66;;;-144.09;94.11
8890;BME280;4481;43.406;24.454;2023-05-18T10:37:45;76056.38;;;-144.09;93.76
8890;BME280;4481;43.406;24.454;2023-05-18T10:40:13;76104.44;;;-144.09;95.94
8890;BME280;4481;43.406;24.454;2023-05-18T10:42:40;76119.06;;;-144.09;95.66
8890;BME280;4481;43.406;24.454;2023-05-18T10:45:09;76119.06;;;-144.09;97.24
8890;BME280;4481;43.406;24.454;2023-05-18T10:47:35;76123.25;;;-144.09;96.64
8890;BME280;4481;43.406;24.454;2023-05-18T10:50:05;76127.41;;;-144.09;95.74
8890;BME280;4481;43.406;24.454;2023-05-18T10:52:31;76091.91;;;-144.09;95.38
8890;BME280;4481;43.406;24.454;2023-05-18T10:54:59;76073.09;;;-144.09;95.45
8890;BME280;4481;43.406;24.454;2023-05-18T10:57:28;76064.75;;;-144.09;93.07
8890;BME280;4481;43.406;24.454;2023-05-18T10:59:58;76066.84;;;-144.09;91.65
8890;BME280;4481;43.406;24.454;2023-05-18T11:02:25;76079.38;;;-144.09;93.86
8890;BME280;4481;43.406;24.454;2023-05-18T11:04:52;76077.28;;;-144.09;91.33
8890;BME280;4481;43.406;24.454;2023-05-18T11:07:20;76064.75;;;-144.09;92.14
8890;BME280;4481;43.406;24.454;2023-05-18T11:09:48;76127.41;;;-144.09;93.36
8890;BME280;4481;43.406;24.454;2023-05-18T11:12:15;76104.44;;;-144.09;90.91
8890;BME280;4481;43.406;24.454;2023-05-18T11:14:49;76075.19;;;-144.09;86.50
8890;BME280;4481;43.406;24.454;2023-05-18T11:17:19;76091.91;;;-144.09;87.86
8890;BME280;4481;43.406;24.454;2023-05-18T11:20:11;76089.81;;;-144.09;88.56
8890;BME280;4481;43.406;24.454;2023-05-18T11:22:45;76131.59;;;-144.09;88.81
8890;BME280;4481;43.406;24.454;2023-05-18T11:25:37;76150.41;;;-144.09;87.25
8890;BME280;4481;43.406;24.454;2023-05-18T11:28:05;76190.09;;;-144.09;87.58
8890;BME280;4481;43.406;24.454;2023-05-18T11:30:48;76167.13;;;-144.09;88.39
8890;BME280;4481;43.406;24.454;2023-05-18T11:33:16;76233.97;;;-144.09;89.85
8890;BME280;4481;43.406;24.454;2023-05-18T11:36:10;76200.56;;;-144.09;89.05
8890;BME280;4481;43.406;24.454;2023-05-18T11:38:52;76135.78;;;-144.09;88.30
8890;BME280;4481;43.406;24.454;2023-05-18T11:41:36;76112.78;;;-144.09;87.04
8890;BME280;4481;43.406;24.454;2023-05-18T11:44:14;76106.53;;;-144.09;88.59
8890;BME280;4481;43.406;24.454;2023-05-18T11:46:51;76121.16;;;-144.09;87.28
8890;BME280;4481;43.406;24.454;2023-05-18T11:49:20;76094.00;;;-144.09;87.70
8890;BME280;4481;43.406;24.454;2023-05-18T11:52:01;76054.31;;;-144.09;86.97
8890;BME280;4481;43.406;24.454;2023-05-18T11:54:32;76058.47;;;-144.09;86.14
8890;BME280;4481;43.406;24.454;2023-05-18T11:56:59;76087.72;;;-144.09;87.76
8890;BME280;4481;43.406;24.454;2023-05-18T11:59:31;76173.38;;;-144.09;89.27
8890;BME280;4481;43.406;24.454;2023-05-18T12:01:59;76162.94;;;-144.09;89.13
8890;BME280;4481;43.406;24.454;2023-05-18T12:04:25;76131.59;;;-144.09;87.80
8890;BME280;4481;43.406;24.454;2023-05-18T12:06:52;76154.59;;;-144.09;87.31
8890;BME280;4481;43.406;24.454;2023-05-18T12:09:19;76135.78;;;-144.09;88.13
8890;BME280;4481;43.406;24.454;2023-05-18T12:11:46;76081.47;;;-144.09;86.29
8890;BME280;4481;43.406;24.454;2023-05-18T12:14:12;76029.22;;;-144.09;85.06
8890;BME280;4481;43.406;24.454;2023-05-18T12:16:39;76014.59;;;-144.09;82.80
8890;BME280;4481;43.406;24.454;2023-05-18T12:19:06;75962.38;;;-144.09;83.66
8890;BME280;4481;43.406;24.454;2023-05-18T12:21:34;75916.41;;;-144.09;85.17
8890;BME280;4481;43.406;24.454;2023-05-18T12:24:00;75903.88;;;-144.09;84.68
8890;BME280;4481;43.406;24.454;2023-05-18T12:26:27;75922.69;;;-144.09;86.34
8890;BME280;4481;43.406;24.454;2023-05-18T12:28:55;75880.91;;;-144.09;82.45
8890;BME280;4481;43.406;24.454;2023-05-18T12:31:21;75874.63;;;-144.09;85.02
8890;BME280;4481;43.406;24.454;2023-05-18T12:33:48;75908.06;;;-144.09;83.59
8890;BME280;4481;43.406;24.454;2023-05-18T12:36:16;75876.72;;;-144.09;84.93
8890;BME280;4481;43.406;24.454;2023-05-18T12:38:42;75876.72;;;-144.09;83.75
8890;BME280;4481;43.406;24.454;2023-05-18T12:41:08;75887.16;;;-144.09;77.87
8890;BME280;4481;43.406;24.454;2023-05-18T12:43:35;75903.88;;;-144.09;79.46
8890;BME280;4481;43.406;24.454;2023-05-18T12:46:03;75912.22;;;-144.09;82.71